Ben — 9VJM4 — position and weather

sailwx.info

Track history (hours):
 
Tides and Currents Weather Stations Pressure Air Temp Water Temp Dewpoint Dewpoint Depression Visibility Wind Speed Wind Dir Waves Ship Positions

Ben

Last reported at 2015-Jun-22 18:09 UTC. Time now 2015-Jul-01 23:15 UTC.
Position N 01°15' E 104°03'.
Warning: this ship's position is 9 days out of date.

Length 127 m; draft 8 m.

Type: Tanker. MMSI: 565611000.

Date/timePositionNaut miles runAvg speedWind from/ knotsBaromVisibWave heightAir tempDewpointWater temp
2015-Jun-22 18:09N 01°15' E 104°03'712.3
2015-Jun-22 17:33N 01°13' E 103°55'8510.3
2015-Jun-22 09:18N 01°44' E 102°36'912.0
2015-Jun-22 08:31N 01°48' E 102°27'17 0.4
2015-Jun-20 15:14N 01°58' E 102°14'912.4
2015-Jun-20 14:33N 01°54' E 102°21'1212.4
2015-Jun-20 13:33N 01°49' E 102°33'77 5.3
2015-Jun-19 23:07N 01°12' E 103°40'6 7.2
2015-Jun-19 22:15N 01°09' E 103°45'7 9.5
2015-Jun-19 21:33N 01°12' E 103°51'1110.6
2015-Jun-19 20:33N 01°16' E 104°01'  
Track history (hours):
 
Tides and Currents Weather Stations Pressure Air Temp Water Temp Dewpoint Dewpoint Depression Visibility Wind Speed Wind Dir Waves Ship Positions

Ben

Last reported at 2015-Jun-22 18:09 UTC. Time now 2015-Jul-01 23:15 UTC.
Position N 01°15' E 104°03'.
Warning: this ship's position is 9 days out of date.

Length 127 m; draft 8 m.

Type: Tanker. MMSI: 565611000.

Date/timePositionNaut miles runAvg speedWind from/ knotsBaromVisibWave heightAir tempDewpointWater temp
2015-Jun-22 18:09N 01°15' E 104°03'712.3
2015-Jun-22 17:33N 01°13' E 103°55'8510.3
2015-Jun-22 09:18N 01°44' E 102°36'912.0
2015-Jun-22 08:31N 01°48' E 102°27'17 0.4
2015-Jun-20 15:14N 01°58' E 102°14'912.4
2015-Jun-20 14:33N 01°54' E 102°21'1212.4
2015-Jun-20 13:33N 01°49' E 102°33'77 5.3
2015-Jun-19 23:07N 01°12' E 103°40'6 7.2
2015-Jun-19 22:15N 01°09' E 103°45'7 9.5
2015-Jun-19 21:33N 01°12' E 103°51'1110.6
2015-Jun-19 20:33N 01°16' E 104°01'  

Dump ship's entire track history